createdAt,value
2018-09-23T00:01:24.690Z,58.90
2018-09-23T00:03:55.336Z,59.10
2018-09-23T00:06:25.946Z,59.30
2018-09-23T00:08:57.088Z,59.40
2018-09-23T00:11:27.664Z,59.40
2018-09-23T00:13:57.325Z,59.40
2018-09-23T00:16:27.075Z,59.50
2018-09-23T00:18:56.762Z,59.70
2018-09-23T00:21:27.251Z,59.80
2018-09-23T00:23:56.723Z,59.80
2018-09-23T00:26:26.295Z,59.70
2018-09-23T00:28:57.970Z,59.80
2018-09-23T00:31:29.335Z,59.80
2018-09-23T00:34:04.195Z,59.90
2018-09-23T00:36:34.544Z,59.90
2018-09-23T00:39:05.850Z,59.90
2018-09-23T00:41:37.697Z,59.90
2018-09-23T00:44:07.202Z,59.90
2018-09-23T00:46:36.869Z,60.00
2018-09-23T00:49:08.207Z,59.90
2018-09-23T00:51:38.029Z,59.90
2018-09-23T00:54:08.892Z,60.00
2018-09-23T00:56:42.150Z,60.00
2018-09-23T00:59:12.062Z,60.00
2018-09-23T01:01:43.616Z,60.00
2018-09-23T01:04:14.505Z,59.90
2018-09-23T01:06:44.344Z,59.80
2018-09-23T01:09:14.557Z,59.80
2018-09-23T01:11:44.161Z,59.90
2018-09-23T01:14:15.104Z,59.80
2018-09-23T01:16:44.695Z,59.80
2018-09-23T01:19:15.249Z,59.80
2018-09-23T01:21:44.761Z,59.80
2018-09-23T01:24:16.201Z,59.80
2018-09-23T01:26:45.584Z,59.80
2018-09-23T01:29:15.708Z,59.80
2018-09-23T01:31:45.394Z,59.70
2018-09-23T01:34:16.977Z,59.70
2018-09-23T01:36:46.542Z,59.90
2018-09-23T01:39:17.216Z,59.90
2018-09-23T01:41:46.907Z,60.10
2018-09-23T01:44:17.526Z,60.00
2018-09-23T01:46:46.978Z,60.20
2018-09-23T01:49:16.460Z,60.30
2018-09-23T01:51:45.859Z,59.90
2018-09-23T01:54:16.535Z,60.50
2018-09-23T01:56:46.002Z,60.50
2018-09-23T01:59:15.546Z,60.60
2018-09-23T02:01:45.048Z,60.70
2018-09-23T02:04:14.512Z,60.80
2018-09-23T02:06:44.060Z,60.80
2018-09-23T02:09:13.704Z,60.80
2018-09-23T02:11:43.134Z,60.80
2018-09-23T02:14:12.619Z,60.80
2018-09-23T02:16:42.031Z,60.70
2018-09-23T02:19:11.481Z,60.60
2018-09-23T02:21:42.134Z,60.50
2018-09-23T02:24:11.730Z,60.50
2018-09-23T02:26:41.416Z,60.40
2018-09-23T02:29:11.193Z,60.50
2018-09-23T02:31:40.746Z,60.50
2018-09-23T02:34:10.256Z,60.50
2018-09-23T02:36:40.496Z,60.50
2018-09-23T02:39:11.232Z,60.40
2018-09-23T02:41:40.706Z,60.40
2018-09-23T02:44:10.279Z,60.40
2018-09-23T02:46:40.524Z,60.40
2018-09-23T02:49:10.358Z,60.40
2018-09-23T02:51:40.067Z,60.40
2018-09-23T02:54:09.759Z,60.50
2018-09-23T02:56:39.477Z,60.50
2018-09-23T02:59:10.711Z,60.60
2018-09-23T03:01:40.220Z,60.70
2018-09-23T03:04:09.820Z,60.80
2018-09-23T03:06:39.289Z,60.90
2018-09-23T03:09:08.792Z,60.90
2018-09-23T03:11:38.373Z,61.00
2018-09-23T03:14:08.127Z,60.90
2018-09-23T03:16:37.905Z,61.70
2018-09-23T03:19:07.513Z,61.00
2018-09-23T03:21:37.054Z,61.00
2018-09-23T03:24:06.635Z,61.10
2018-09-23T03:26:36.271Z,61.00
2018-09-23T03:29:06.837Z,61.00
2018-09-23T03:31:36.506Z,61.00
2018-09-23T03:34:05.887Z,61.00
2018-09-23T03:36:35.593Z,61.00
2018-09-23T03:39:07.336Z,60.90
2018-09-23T03:41:37.205Z,61.00
2018-09-23T03:44:07.019Z,61.00
2018-09-23T03:46:36.636Z,61.00
2018-09-23T03:49:06.324Z,61.00
2018-09-23T03:51:35.827Z,61.00
2018-09-23T03:54:05.657Z,61.00
2018-09-23T03:56:35.308Z,61.00
2018-09-23T03:59:05.472Z,61.00
2018-09-23T04:01:35.223Z,61.10
2018-09-23T04:04:05.987Z,61.10
2018-09-23T04:06:35.609Z,61.30
2018-09-23T04:09:06.740Z,61.30
2018-09-23T04:11:36.438Z,61.30
2018-09-23T04:14:06.582Z,61.50
2018-09-23T04:16:36.190Z,61.50
2018-09-23T04:19:06.412Z,61.60
2018-09-23T04:21:35.957Z,61.70
2018-09-23T04:24:05.394Z,61.70
2018-09-23T04:26:35.534Z,61.80
2018-09-23T04:29:06.790Z,61.80
2018-09-23T04:31:36.572Z,61.80
2018-09-23T04:34:06.251Z,61.80
2018-09-23T04:36:35.817Z,62.10
2018-09-23T04:39:08.150Z,62.00
2018-09-23T04:41:38.012Z,62.70
2018-09-23T04:44:07.674Z,62.00
2018-09-23T04:46:37.310Z,62.00
2018-09-23T04:49:07.837Z,62.00
2018-09-23T04:51:37.270Z,62.00
2018-09-23T04:54:06.773Z,62.80
2018-09-23T04:56:36.209Z,62.00
2018-09-23T04:59:06.838Z,62.10
2018-09-23T05:01:36.448Z,62.10
2018-09-23T05:04:06.109Z,62.10
2018-09-23T05:06:35.609Z,62.20
2018-09-23T05:09:06.549Z,62.30
2018-09-23T05:11:35.941Z,62.40
2018-09-23T05:14:05.464Z,62.50
2018-09-23T05:16:35.425Z,62.60
2018-09-23T05:19:04.963Z,62.80
2018-09-23T05:21:34.513Z,62.70
2018-09-23T05:24:04.146Z,62.60
2018-09-23T05:26:40.178Z,62.50
2018-09-23T05:29:09.668Z,62.40
2018-09-23T05:31:39.338Z,62.50
2018-09-23T05:34:09.042Z,62.40
2018-09-23T05:36:39.122Z,62.60
2018-09-23T05:39:10.569Z,62.70
2018-09-23T05:41:40.448Z,62.70
2018-09-23T05:44:10.500Z,62.70
2018-09-23T05:46:40.303Z,62.80
2018-09-23T05:49:10.699Z,62.80
2018-09-23T05:51:40.316Z,62.60
2018-09-23T05:54:10.118Z,62.50
2018-09-23T05:56:41.195Z,62.60
2018-09-23T05:59:10.971Z,62.50
2018-09-23T06:01:40.582Z,62.50
2018-09-23T06:04:11.187Z,62.60
2018-09-23T06:06:41.883Z,62.50
2018-09-23T06:09:12.513Z,62.60
2018-09-23T06:11:42.327Z,62.50
2018-09-23T06:14:11.900Z,62.60
2018-09-23T06:16:42.525Z,62.80
2018-09-23T06:19:12.192Z,62.80
2018-09-23T06:21:48.219Z,63.10
2018-09-23T06:24:20.059Z,63.30
2018-09-23T06:26:55.438Z,63.60
2018-09-23T06:29:28.657Z,63.90
2018-09-23T06:31:59.590Z,63.90
2018-09-23T06:34:36.296Z,63.90
2018-09-23T06:37:06.234Z,64.00
2018-09-23T06:39:36.021Z,64.00
2018-09-23T06:42:05.676Z,64.10
2018-09-23T06:44:36.059Z,64.00
2018-09-23T06:47:06.379Z,64.00
2018-09-23T06:49:39.293Z,64.10
2018-09-23T06:52:13.451Z,64.30
2018-09-23T06:54:49.081Z,64.40
2018-09-23T06:57:23.466Z,64.60
2018-09-23T07:00:04.226Z,64.70
2018-09-23T07:02:33.965Z,64.90
2018-09-23T07:05:05.729Z,65.00
2018-09-23T07:07:38.570Z,64.90
2018-09-23T07:10:08.206Z,65.00
2018-09-23T07:12:39.482Z,65.20
2018-09-23T07:15:15.426Z,65.40
2018-09-23T07:17:45.018Z,65.70
2018-09-23T07:20:14.597Z,66.20
2018-09-23T07:22:45.172Z,66.80
2018-09-23T07:25:21.328Z,67.50
2018-09-23T07:27:51.755Z,67.70
2018-09-23T07:30:21.367Z,68.00
2018-09-23T07:32:50.868Z,67.90
2018-09-23T07:35:20.358Z,67.70
2018-09-23T07:37:50.522Z,67.50
2018-09-23T07:40:21.139Z,67.50
2018-09-23T07:42:54.282Z,67.60
2018-09-23T07:45:27.587Z,67.80
2018-09-23T07:47:57.021Z,67.90
2018-09-23T07:50:26.986Z,67.80
2018-09-23T07:52:56.852Z,67.80
2018-09-23T07:55:28.452Z,68.10
2018-09-23T07:57:59.145Z,68.50
2018-09-23T08:00:28.889Z,68.60
2018-09-23T08:02:58.881Z,68.70
2018-09-23T08:05:28.430Z,68.70
2018-09-23T08:07:59.110Z,69.00
2018-09-23T08:10:28.685Z,69.10
2018-09-23T08:13:00.825Z,69.10
2018-09-23T08:15:32.437Z,69.40
2018-09-23T08:18:06.539Z,69.30
2018-09-23T08:20:37.059Z,69.60
2018-09-23T08:23:06.779Z,69.80
2018-09-23T08:25:36.345Z,69.80
2018-09-23T08:28:06.568Z,69.80
2018-09-23T08:30:38.527Z,70.00
2018-09-23T08:33:13.499Z,70.10
2018-09-23T08:35:43.812Z,70.10
2018-09-23T08:38:16.710Z,70.10
2018-09-23T08:40:52.324Z,70.30
2018-09-23T08:43:34.845Z,70.00
2018-09-23T08:46:06.916Z,69.50
2018-09-23T08:48:36.705Z,69.30
2018-09-23T08:51:09.163Z,69.10
2018-09-23T08:53:39.014Z,68.90
2018-09-23T08:56:09.531Z,68.80
2018-09-23T08:58:50.085Z,68.70
2018-09-23T09:01:26.476Z,68.50
2018-09-23T09:03:56.039Z,68.60
2018-09-23T09:06:25.785Z,68.70
2018-09-23T09:08:55.242Z,68.60
2018-09-23T09:11:24.783Z,68.70
2018-09-23T09:13:54.425Z,68.50
2018-09-23T09:16:31.211Z,67.90
2018-09-23T09:19:00.927Z,68.10
2018-09-23T09:21:37.618Z,67.50
2018-09-23T09:24:07.527Z,67.70
2018-09-23T09:26:37.112Z,67.70
2018-09-23T09:29:15.517Z,68.20
2018-09-23T09:31:46.985Z,68.30
2018-09-23T09:34:16.965Z,68.50
2018-09-23T09:36:47.041Z,68.90
2018-09-23T09:39:16.980Z,68.80
2018-09-23T09:41:47.511Z,69.20
2018-09-23T09:44:17.053Z,69.30
2018-09-23T09:46:46.533Z,69.60
2018-09-23T09:49:18.893Z,70.00
2018-09-23T09:51:48.436Z,69.80
2018-09-23T09:54:18.016Z,69.50
2018-09-23T09:56:47.477Z,69.70
2018-09-23T09:59:18.113Z,69.60
2018-09-23T10:01:47.744Z,69.70
2018-09-23T10:04:17.238Z,69.80
2018-09-23T10:06:46.748Z,69.60
2018-09-23T10:09:16.167Z,69.30
2018-09-23T10:11:46.311Z,69.70
2018-09-23T10:14:16.330Z,69.40
2018-09-23T10:16:47.472Z,69.40
2018-09-23T10:19:18.372Z,69.90
2018-09-23T10:21:48.120Z,70.00
2018-09-23T10:24:17.870Z,69.80
2018-09-23T10:26:47.503Z,69.30
2018-09-23T10:29:17.884Z,69.40
2018-09-23T10:31:47.701Z,69.20
2018-09-23T10:34:17.115Z,69.30
2018-09-23T10:36:47.611Z,69.10
2018-09-23T10:39:18.318Z,69.00
2018-09-23T10:41:48.659Z,69.10
2018-09-23T10:44:19.008Z,69.20
2018-09-23T10:46:48.601Z,69.30
2018-09-23T10:49:19.531Z,69.30
2018-09-23T10:51:49.615Z,68.90
2018-09-23T10:54:19.204Z,68.60
2018-09-23T10:56:48.783Z,68.70
2018-09-23T10:59:18.182Z,68.90
2018-09-23T11:01:47.717Z,69.10
2018-09-23T11:04:17.017Z,69.40
2018-09-23T11:06:46.468Z,69.50
2018-09-23T11:09:16.046Z,69.70
2018-09-23T11:11:45.697Z,69.70
2018-09-23T11:14:15.234Z,69.90
2018-09-23T11:16:45.437Z,70.50
2018-09-23T11:19:14.984Z,70.50
2018-09-23T11:21:44.787Z,70.50
2018-09-23T11:24:14.282Z,70.40
2018-09-23T11:26:43.712Z,70.50
2018-09-23T11:29:13.250Z,70.40
2018-09-23T11:31:43.506Z,70.50
2018-09-23T11:34:13.630Z,70.80
2018-09-23T11:36:43.161Z,71.00
2018-09-23T11:39:13.813Z,71.00
2018-09-23T11:41:43.683Z,71.00
2018-09-23T11:44:13.419Z,70.90
2018-09-23T11:46:43.196Z,70.90
2018-09-23T11:49:12.773Z,71.30
2018-09-23T11:51:42.925Z,71.80
2018-09-23T11:54:12.380Z,72.20
2018-09-23T11:56:41.940Z,72.10
2018-09-23T11:59:11.615Z,72.20
2018-09-23T12:01:41.640Z,72.10
2018-09-23T12:04:11.353Z,72.10
2018-09-23T12:06:41.184Z,71.90
2018-09-23T12:09:13.192Z,72.00
2018-09-23T12:11:42.953Z,72.10
2018-09-23T12:14:12.705Z,72.00
2018-09-23T12:16:42.616Z,72.20
2018-09-23T12:19:15.054Z,72.50
2018-09-23T12:21:44.468Z,72.70
2018-09-23T12:24:13.993Z,72.80
2018-09-23T12:26:45.497Z,73.00
2018-09-23T12:29:15.017Z,74.10
2018-09-23T12:31:45.162Z,74.10
2018-09-23T12:34:14.772Z,73.40
2018-09-23T12:36:45.583Z,74.30
2018-09-23T12:39:15.297Z,73.80
2018-09-23T12:41:44.944Z,73.90
2018-09-23T12:44:14.659Z,73.90
2018-09-23T12:46:45.822Z,74.30
2018-09-23T12:49:15.486Z,74.80
2018-09-23T12:51:44.868Z,75.00
2018-09-23T12:54:14.430Z,75.10
2018-09-23T12:56:44.210Z,75.30
2018-09-23T12:59:14.011Z,75.20
2018-09-23T13:01:44.382Z,75.30
2018-09-23T13:04:14.519Z,75.40
2018-09-23T13:06:44.384Z,75.50
2018-09-23T13:09:14.026Z,75.50
2018-09-23T13:11:44.611Z,75.70
2018-09-23T13:14:14.248Z,75.90
2018-09-23T13:16:43.928Z,75.80
2018-09-23T13:19:13.514Z,75.90
2018-09-23T13:21:43.287Z,76.00
2018-09-23T13:24:12.830Z,76.00
2018-09-23T13:26:42.515Z,76.00
2018-09-23T13:29:12.141Z,76.00
2018-09-23T13:31:41.624Z,75.90
2018-09-23T13:34:11.121Z,75.80
2018-09-23T13:36:40.886Z,76.10
2018-09-23T13:39:11.064Z,76.40
2018-09-23T13:41:40.596Z,76.90
2018-09-23T13:44:10.547Z,77.30
2018-09-23T13:46:40.739Z,78.50
2018-09-23T13:49:10.791Z,78.30
2018-09-23T13:51:40.697Z,78.70
2018-09-23T13:54:10.673Z,79.30
2018-09-23T13:56:40.570Z,79.70
2018-09-23T13:59:11.134Z,80.10
2018-09-23T14:01:40.749Z,80.30
2018-09-23T14:04:10.397Z,80.40
2018-09-23T14:06:40.317Z,80.90
2018-09-23T14:09:10.775Z,81.10
2018-09-23T14:11:40.380Z,81.30
2018-09-23T14:14:10.975Z,81.50
2018-09-23T14:16:40.669Z,81.70
2018-09-23T14:19:10.776Z,82.00
2018-09-23T14:21:40.347Z,82.30
2018-09-23T14:24:09.978Z,82.50
2018-09-23T14:26:39.488Z,82.70
2018-09-23T14:29:10.059Z,82.90
2018-09-23T14:31:39.641Z,83.10
2018-09-23T14:34:09.252Z,83.30
2018-09-23T14:36:45.300Z,83.30
2018-09-23T14:39:15.405Z,83.40
2018-09-23T14:41:44.819Z,83.70
2018-09-23T14:44:15.121Z,83.70
2018-09-23T14:46:45.256Z,83.90
2018-09-23T14:49:15.889Z,84.20
2018-09-23T14:51:49.169Z,84.50
2018-09-23T14:54:18.913Z,84.70
2018-09-23T14:56:49.598Z,85.00
2018-09-23T14:59:23.498Z,85.00
2018-09-23T15:01:55.385Z,85.00
2018-09-23T15:04:25.171Z,85.20
2018-09-23T15:06:55.904Z,85.10
2018-09-23T15:09:27.463Z,85.10
2018-09-23T15:11:57.138Z,85.30
2018-09-23T15:14:27.695Z,85.40
2018-09-23T15:17:00.623Z,85.30
2018-09-23T15:19:30.312Z,85.30
2018-09-23T15:22:02.426Z,85.20
2018-09-23T15:24:35.842Z,85.30
2018-09-23T15:27:09.561Z,85.10
2018-09-23T15:32:40.182Z,85.20
2018-09-23T15:35:14.830Z,85.30
2018-09-23T15:37:46.253Z,85.20
2018-09-23T15:40:22.307Z,85.30
2018-09-23T15:42:53.452Z,85.50
2018-09-23T15:45:32.925Z,85.60
2018-09-23T15:48:07.093Z,85.80
2018-09-23T15:50:42.838Z,86.00
2018-09-23T15:53:17.886Z,86.10
2018-09-23T15:55:54.904Z,86.20
2018-09-23T15:58:29.840Z,86.50
2018-09-23T16:01:01.089Z,86.50
2018-09-23T16:03:34.249Z,86.70
2018-09-23T16:06:05.583Z,86.60
2018-09-23T16:08:37.333Z,86.70
2018-09-23T16:11:07.566Z,86.80
2018-09-23T16:13:38.475Z,87.00
2018-09-23T16:16:11.381Z,87.10
2018-09-23T16:18:41.798Z,87.40
2018-09-23T16:21:12.211Z,87.60
2018-09-23T16:23:42.245Z,87.70
2018-09-23T16:26:13.412Z,87.80
2018-09-23T16:28:46.080Z,88.00
2018-09-23T16:31:16.037Z,88.10
2018-09-23T16:33:47.033Z,88.20
2018-09-23T16:36:17.564Z,88.30
2018-09-23T16:38:49.690Z,88.40
2018-09-23T16:41:20.312Z,88.50
2018-09-23T16:43:51.704Z,88.40
2018-09-23T16:46:21.778Z,88.40
2018-09-23T16:48:52.900Z,88.60
2018-09-23T16:51:24.915Z,88.50
2018-09-23T16:53:56.106Z,88.40
2018-09-23T16:56:28.346Z,88.50
2018-09-23T16:58:59.275Z,88.20
2018-09-23T17:01:29.095Z,88.10
2018-09-23T17:04:00.714Z,88.20
2018-09-23T17:06:33.182Z,88.10
2018-09-23T17:09:05.638Z,88.00
2018-09-23T17:11:38.463Z,88.10
2018-09-23T17:14:09.624Z,88.00
2018-09-23T17:16:39.699Z,87.90
2018-09-23T17:19:11.086Z,87.80
2018-09-23T17:25:11.065Z,87.70
2018-09-23T17:27:46.183Z,87.50
2018-09-23T17:30:20.702Z,87.50
2018-09-23T17:33:04.024Z,87.40
2018-09-23T17:35:56.215Z,87.30
2018-09-23T17:44:49.416Z,86.70
2018-09-23T17:47:54.346Z,86.50
2018-09-23T17:50:33.627Z,86.40
2018-09-23T17:53:04.320Z,86.00
2018-09-23T17:55:35.990Z,86.00
2018-09-23T17:58:09.060Z,85.90
2018-09-23T18:01:04.074Z,85.80
2018-09-23T18:03:41.786Z,85.80
2018-09-23T18:06:14.649Z,85.70
2018-09-23T18:08:48.834Z,85.80
2018-09-23T18:11:23.697Z,85.80
2018-09-23T18:13:58.488Z,85.80
2018-09-23T18:16:31.929Z,85.90
2018-09-23T18:19:04.855Z,86.20
2018-09-23T18:21:39.640Z,86.20
2018-09-23T18:24:22.123Z,86.00
2018-09-23T18:26:53.376Z,85.50
2018-09-23T18:29:25.937Z,85.00
2018-09-23T18:32:07.913Z,85.70
2018-09-23T19:47:30.138Z,85.10
2018-09-23T19:50:32.773Z,86.20
2018-09-23T20:14:16.397Z,85.20
2018-09-23T20:16:50.538Z,84.90
2018-09-23T20:19:33.938Z,84.60
2018-09-23T20:22:21.651Z,84.60
2018-09-23T20:24:56.732Z,84.50
2018-09-23T20:27:29.211Z,84.30
2018-09-23T20:29:59.445Z,84.20
2018-09-23T20:32:31.246Z,84.10
2018-09-23T20:35:01.833Z,83.90
2018-09-23T20:37:41.783Z,83.70
2018-09-23T20:40:15.040Z,83.70
2018-09-23T20:42:47.530Z,83.70
2018-09-23T20:45:20.033Z,82.60
2018-09-23T20:47:52.490Z,82.50
2018-09-23T20:50:28.006Z,82.40
2018-09-23T20:53:09.795Z,82.40
2018-09-23T20:56:16.120Z,82.40
2018-09-23T21:01:51.443Z,82.10
2018-09-23T21:04:33.562Z,82.90
2018-09-23T21:07:04.097Z,82.10
2018-09-23T21:09:35.100Z,82.00
2018-09-23T21:12:05.978Z,81.90
2018-09-23T21:14:38.618Z,81.80
2018-09-23T21:17:27.935Z,81.90
2018-09-23T21:20:13.819Z,81.70
2018-09-23T21:22:54.015Z,81.70
2018-09-23T21:25:40.839Z,81.90
2018-09-23T21:28:29.813Z,81.90
2018-09-23T21:31:01.413Z,82.00
2018-09-23T21:33:34.658Z,82.20
2018-09-23T21:36:23.185Z,82.30
2018-09-23T21:42:09.994Z,82.20
2018-09-23T21:44:50.558Z,82.10
2018-09-23T21:50:28.651Z,81.90
2018-09-23T21:56:28.614Z,81.80
2018-09-23T21:59:03.606Z,81.70
2018-09-23T22:02:00.368Z,81.60
2018-09-23T22:04:36.053Z,81.60
2018-09-23T22:07:08.410Z,81.60
2018-09-23T22:09:51.267Z,81.50
2018-09-23T22:12:22.027Z,81.50
2018-09-23T22:14:54.523Z,81.70
2018-09-23T22:17:25.518Z,81.50
2018-09-23T22:20:12.176Z,81.50
2018-09-23T22:22:44.062Z,81.50
2018-09-23T22:25:16.312Z,81.40
2018-09-23T22:27:47.224Z,81.40
2018-09-23T22:30:18.768Z,81.40
2018-09-23T22:32:51.807Z,81.30
2018-09-23T22:35:28.573Z,81.30
2018-09-23T22:38:04.875Z,81.30
2018-09-23T22:41:04.929Z,81.30
2018-09-23T22:43:58.667Z,81.30
2018-09-23T22:46:38.138Z,81.10
2018-09-23T22:49:17.077Z,81.20
2018-09-23T22:52:02.264Z,81.00
2018-09-23T22:54:34.569Z,81.10
2018-09-23T22:57:06.050Z,81.10
2018-09-23T22:59:38.208Z,81.40
2018-09-23T23:02:10.310Z,81.10
2018-09-23T23:04:49.016Z,81.10
2018-09-23T23:07:26.458Z,81.10
2018-09-23T23:09:57.544Z,81.10
2018-09-23T23:12:27.660Z,81.10
2018-09-23T23:14:58.703Z,81.10
2018-09-23T23:17:30.488Z,81.10
2018-09-23T23:20:02.273Z,81.10
2018-09-23T23:22:32.438Z,81.00
2018-09-23T23:25:02.558Z,80.70
2018-09-23T23:27:35.228Z,80.60
2018-09-23T23:30:05.253Z,80.50
2018-09-23T23:32:35.979Z,80.30
2018-09-23T23:35:06.856Z,80.30
2018-09-23T23:37:39.273Z,80.20
2018-09-23T23:40:10.029Z,80.20
2018-09-23T23:42:41.443Z,80.10
2018-09-23T23:45:14.189Z,80.10
2018-09-23T23:47:44.801Z,80.10
2018-09-23T23:50:15.931Z,80.10
2018-09-23T23:52:46.492Z,80.00
2018-09-23T23:55:20.029Z,80.00
2018-09-23T23:57:50.244Z,80.00
